Alamogordo, New Mexico
Current Conditions -  °F | °C
As of 6:58 PM on Friday 24 Oct 2014 (Local Time) from KHMN Reporting Station
Clear Clear  
Wind Chill: 76°   Ceiling: Unl
Heat Index: 76°   Visibility: 10mi
Dew Point: 47°   Wind: 0mph
Humidity: 36%   Direction: NA
Pressure: 30.17"   Gusts: NA
Location:  32.9°N, 105.96°W
Report Text: KHMN 250058Z AUTO 00000KT 10SM CLR 24/08 A3017 RMK AO2 SLP165 T02420083 $
Loading
Personal Weather Stations






























Interactive Weather Map
Tropical Storm Tracking
New forecast layout! Learn more

10-Day Weather Forecast

Advertisements
Track Severe Weather on mobile